createdAt,value
2023-03-26T00:00:48.614Z,9.00
2023-03-26T00:03:17.167Z,9.00
2023-03-26T00:05:45.877Z,9.00
2023-03-26T00:08:12.571Z,9.00
2023-03-26T00:10:40.694Z,9.00
2023-03-26T00:13:07.838Z,9.00
2023-03-26T00:15:36.050Z,9.00
2023-03-26T00:18:03.149Z,9.00
2023-03-26T00:20:32.889Z,9.00
2023-03-26T00:23:03.487Z,9.00
2023-03-26T00:25:31.979Z,9.00
2023-03-26T00:27:59.838Z,9.00
2023-03-26T00:30:27.610Z,9.00
2023-03-26T00:32:54.298Z,9.00
2023-03-26T00:35:22.464Z,9.00
2023-03-26T00:37:51.424Z,8.90
2023-03-26T00:40:18.369Z,8.90
2023-03-26T00:42:44.960Z,8.90
2023-03-26T00:45:11.738Z,8.90
2023-03-26T00:47:40.063Z,8.90
2023-03-26T00:50:15.135Z,8.90
2023-03-26T00:52:46.153Z,8.90
2023-03-26T00:55:13.379Z,8.90
2023-03-26T00:57:40.614Z,8.90
2023-03-26T01:00:16.773Z,8.90
2023-03-26T01:02:47.017Z,8.90
2023-03-26T01:05:33.819Z,8.90
2023-03-26T01:08:15.031Z,8.80
2023-03-26T01:10:44.189Z,8.80
2023-03-26T01:13:10.884Z,8.80
2023-03-26T01:15:39.004Z,8.80
2023-03-26T01:18:09.792Z,8.80
2023-03-26T01:20:46.858Z,8.80
2023-03-26T01:23:20.330Z,8.80
2023-03-26T01:26:05.283Z,8.80
2023-03-26T01:28:35.562Z,8.80
2023-03-26T01:31:21.813Z,8.80
2023-03-26T01:34:30.664Z,8.80
2023-03-26T01:37:15.156Z,8.80
2023-03-26T01:40:19.398Z,8.80
2023-03-26T01:43:00.259Z,8.80
2023-03-26T01:45:32.204Z,8.70
2023-03-26T01:47:59.773Z,8.80
2023-03-26T01:50:26.355Z,8.70
2023-03-26T01:52:53.131Z,8.70
2023-03-26T01:55:20.801Z,8.70
2023-03-26T01:57:50.158Z,8.70
2023-03-26T02:00:31.483Z,8.70
2023-03-26T02:03:04.694Z,8.60
2023-03-26T02:05:40.403Z,8.60
2023-03-26T02:08:35.336Z,8.60
2023-03-26T02:11:11.539Z,8.60
2023-03-26T02:13:43.604Z,8.60
2023-03-26T02:16:14.345Z,8.70
2023-03-26T02:18:41.146Z,8.70
2023-03-26T02:21:13.788Z,8.70
2023-03-26T02:23:46.919Z,8.70
2023-03-26T02:26:16.365Z,8.70
2023-03-26T02:28:43.010Z,8.70
2023-03-26T02:31:11.092Z,8.70
2023-03-26T02:33:38.106Z,8.70
2023-03-26T02:36:06.316Z,8.70
2023-03-26T02:38:35.123Z,8.80
2023-03-26T02:41:04.962Z,8.70
2023-03-26T02:43:31.624Z,8.70
2023-03-26T02:45:58.753Z,8.70
2023-03-26T02:48:26.176Z,8.80
2023-03-26T02:50:54.582Z,8.70
2023-03-26T02:53:23.776Z,8.80
2023-03-26T02:55:50.556Z,8.80
2023-03-26T02:58:17.657Z,8.80
2023-03-26T03:00:46.055Z,8.80
2023-03-26T03:03:13.549Z,8.80
2023-03-26T03:05:43.013Z,8.80
2023-03-26T03:08:10.178Z,8.90
2023-03-26T03:10:37.807Z,8.90
2023-03-26T03:13:07.725Z,8.90
2023-03-26T03:15:34.952Z,8.90
2023-03-26T03:18:02.146Z,8.90
2023-03-26T03:20:30.297Z,8.90
2023-03-26T03:22:56.942Z,8.90
2023-03-26T03:25:25.915Z,8.90
2023-03-26T03:27:53.908Z,8.90
2023-03-26T03:30:20.873Z,9.00
2023-03-26T03:32:47.953Z,9.00
2023-03-26T03:35:14.575Z,9.00
2023-03-26T03:37:41.361Z,9.00
2023-03-26T03:40:10.789Z,9.00
2023-03-26T03:42:38.061Z,9.00
2023-03-26T03:45:06.469Z,9.00
2023-03-26T03:47:33.176Z,9.00
2023-03-26T03:50:02.802Z,9.00
2023-03-26T03:52:29.428Z,9.00
2023-03-26T03:54:57.690Z,9.00
2023-03-26T03:57:24.317Z,9.00
2023-03-26T03:59:50.964Z,9.10
2023-03-26T04:02:26.481Z,9.10
2023-03-26T04:04:54.258Z,9.10
2023-03-26T04:07:21.143Z,9.10
2023-03-26T04:09:47.792Z,9.10
2023-03-26T04:12:14.828Z,9.10
2023-03-26T04:14:41.511Z,9.20
2023-03-26T04:17:08.587Z,9.20
2023-03-26T04:19:35.791Z,9.20
2023-03-26T04:22:02.531Z,9.20
2023-03-26T04:24:29.985Z,9.20
2023-03-26T04:26:58.293Z,9.20
2023-03-26T04:29:27.720Z,9.20
2023-03-26T04:31:58.734Z,9.20
2023-03-26T04:34:25.536Z,9.20
2023-03-26T04:36:56.142Z,9.20
2023-03-26T04:39:22.888Z,9.20
2023-03-26T04:41:49.533Z,9.20
2023-03-26T04:44:16.990Z,9.30
2023-03-26T04:46:44.924Z,9.20
2023-03-26T04:49:11.689Z,9.30
2023-03-26T04:51:41.704Z,9.20
2023-03-26T04:54:12.639Z,9.20
2023-03-26T04:56:59.574Z,9.20
2023-03-26T04:59:37.139Z,9.30
2023-03-26T05:02:05.613Z,9.30
2023-03-26T05:04:36.739Z,9.20
2023-03-26T05:07:03.592Z,9.30
2023-03-26T05:09:30.687Z,9.20
2023-03-26T05:11:58.309Z,9.20
2023-03-26T05:14:24.969Z,9.20
2023-03-26T05:16:53.281Z,9.20
2023-03-26T05:19:21.083Z,9.10
2023-03-26T05:21:47.982Z,9.20
2023-03-26T05:24:14.686Z,9.20
2023-03-26T05:26:41.640Z,9.20
2023-03-26T05:29:08.618Z,9.10
2023-03-26T05:31:35.275Z,9.20
2023-03-26T05:34:02.913Z,9.20
2023-03-26T05:36:29.951Z,9.20
2023-03-26T05:38:57.235Z,9.20
2023-03-26T05:41:23.847Z,9.20
2023-03-26T05:43:51.107Z,9.20
2023-03-26T05:46:20.260Z,9.20
2023-03-26T05:48:47.221Z,9.10
2023-03-26T05:51:15.512Z,9.20
2023-03-26T05:53:42.435Z,9.20
2023-03-26T05:56:09.739Z,9.20
2023-03-26T05:58:36.557Z,9.20
2023-03-26T06:01:08.930Z,9.20
2023-03-26T06:03:39.690Z,9.20
2023-03-26T06:06:15.427Z,9.20
2023-03-26T06:08:46.592Z,9.20
2023-03-26T06:11:13.220Z,9.20
2023-03-26T06:13:40.067Z,9.20
2023-03-26T06:16:07.504Z,9.20
2023-03-26T06:18:34.319Z,9.20
2023-03-26T06:21:01.612Z,9.20
2023-03-26T06:23:28.534Z,9.20
2023-03-26T06:25:55.152Z,9.30
2023-03-26T06:28:21.805Z,9.30
2023-03-26T06:30:49.230Z,9.30
2023-03-26T06:33:16.020Z,9.30
2023-03-26T06:35:44.130Z,9.30
2023-03-26T06:38:11.088Z,9.30
2023-03-26T06:40:37.965Z,9.30
2023-03-26T06:43:08.719Z,9.40
2023-03-26T06:45:37.658Z,9.40
2023-03-26T06:48:04.991Z,9.40
2023-03-26T06:50:32.730Z,9.40
2023-03-26T06:52:59.946Z,9.40
2023-03-26T06:55:26.944Z,9.40
2023-03-26T06:57:55.899Z,9.40
2023-03-26T07:00:22.802Z,9.40
2023-03-26T07:02:49.519Z,9.40
2023-03-26T07:05:16.257Z,9.40
2023-03-26T07:07:46.867Z,9.50
2023-03-26T07:10:14.483Z,9.50
2023-03-26T07:12:42.348Z,9.50
2023-03-26T07:15:10.194Z,9.50
2023-03-26T07:17:37.384Z,9.60
2023-03-26T07:20:06.452Z,9.60
2023-03-26T07:22:33.858Z,9.60
2023-03-26T07:25:01.192Z,9.60
2023-03-26T07:27:31.616Z,9.60
2023-03-26T07:30:16.317Z,9.60
2023-03-26T07:32:52.202Z,9.60
2023-03-26T07:35:32.531Z,9.60
2023-03-26T07:38:21.128Z,9.70
2023-03-26T07:41:12.411Z,9.70
2023-03-26T07:44:10.441Z,9.70
2023-03-26T07:46:39.173Z,9.70
2023-03-26T07:49:06.360Z,9.70
2023-03-26T07:51:33.612Z,9.80
2023-03-26T07:54:00.803Z,9.80
2023-03-26T07:56:30.559Z,9.80
2023-03-26T07:59:05.806Z,9.80
2023-03-26T08:02:18.997Z,9.80
2023-03-26T08:04:51.928Z,9.90
2023-03-26T08:07:55.982Z,9.90
2023-03-26T08:10:43.321Z,9.90
2023-03-26T08:13:26.757Z,10.00
2023-03-26T08:16:24.266Z,10.00
2023-03-26T08:19:08.928Z,10.00
2023-03-26T08:21:42.794Z,10.00
2023-03-26T08:24:20.845Z,10.00
2023-03-26T08:27:06.692Z,10.00
2023-03-26T08:29:59.584Z,10.10
2023-03-26T08:32:27.153Z,10.10
2023-03-26T08:34:53.847Z,10.00
2023-03-26T08:37:20.526Z,10.00
2023-03-26T08:39:47.205Z,10.00
2023-03-26T08:42:19.597Z,10.00
2023-03-26T08:45:10.895Z,10.00
2023-03-26T08:47:46.600Z,10.00
2023-03-26T08:50:16.248Z,10.00
2023-03-26T08:53:11.030Z,10.00
2023-03-26T08:55:49.351Z,9.90
2023-03-26T08:58:40.332Z,9.90
2023-03-26T09:01:36.891Z,9.90
2023-03-26T09:04:36.231Z,9.90
2023-03-26T09:07:36.206Z,9.90
2023-03-26T09:10:43.428Z,9.80
2023-03-26T09:13:38.979Z,9.80
2023-03-26T09:16:36.504Z,9.80
2023-03-26T09:19:53.940Z,9.70
2023-03-26T09:22:50.632Z,9.70
2023-03-26T09:25:43.296Z,9.60
2023-03-26T09:28:25.184Z,9.60
2023-03-26T09:30:57.469Z,9.60
2023-03-26T09:33:55.796Z,9.50
2023-03-26T09:36:52.960Z,9.50
2023-03-26T09:39:55.798Z,9.60
2023-03-26T09:42:44.933Z,9.60
2023-03-26T09:45:36.988Z,9.60
2023-03-26T09:48:18.304Z,9.60
2023-03-26T09:51:03.783Z,9.60
2023-03-26T09:53:52.328Z,9.60
2023-03-26T09:56:46.684Z,9.60
2023-03-26T09:59:44.320Z,9.60
2023-03-26T10:02:52.103Z,9.60
2023-03-26T10:05:24.272Z,9.60
2023-03-26T10:08:13.029Z,9.60
2023-03-26T10:10:55.262Z,9.60
2023-03-26T10:13:46.924Z,9.60
2023-03-26T10:16:49.405Z,9.60
2023-03-26T10:19:35.498Z,9.60
2023-03-26T10:22:24.794Z,9.60
2023-03-26T10:25:18.981Z,9.50
2023-03-26T10:27:48.847Z,9.50
2023-03-26T10:30:31.303Z,9.50
2023-03-26T10:33:27.478Z,9.60
2023-03-26T10:36:28.307Z,9.60
2023-03-26T10:39:37.874Z,9.60
2023-03-26T10:42:12.709Z,9.60
2023-03-26T10:45:15.515Z,9.60
2023-03-26T10:47:58.778Z,9.60
2023-03-26T10:51:02.673Z,9.60
2023-03-26T10:53:32.140Z,9.50
2023-03-26T10:56:07.206Z,9.50
2023-03-26T10:58:49.361Z,9.50
2023-03-26T11:01:32.408Z,9.40
2023-03-26T11:04:28.266Z,9.40
2023-03-26T11:07:28.392Z,9.40
2023-03-26T11:10:16.594Z,9.40
2023-03-26T11:12:43.245Z,9.40
2023-03-26T11:15:33.238Z,9.40
2023-03-26T11:18:20.320Z,9.40
2023-03-26T11:21:18.993Z,9.40
2023-03-26T11:24:05.114Z,9.40
2023-03-26T11:26:56.393Z,9.30
2023-03-26T11:29:48.849Z,9.40
2023-03-26T11:32:22.222Z,9.30
2023-03-26T11:35:00.880Z,9.40
2023-03-26T11:37:34.573Z,9.40
2023-03-26T11:40:07.145Z,9.40
2023-03-26T11:42:34.753Z,9.40
2023-03-26T11:45:13.347Z,9.40
2023-03-26T11:47:50.616Z,9.40
2023-03-26T11:50:23.726Z,9.30
2023-03-26T11:52:50.379Z,9.30
2023-03-26T11:55:17.852Z,9.30
2023-03-26T11:57:55.382Z,9.40
2023-03-26T12:00:27.511Z,9.40
2023-03-26T12:02:59.050Z,9.40
2023-03-26T12:05:31.437Z,9.40
2023-03-26T12:08:00.497Z,9.30
2023-03-26T12:10:34.994Z,9.30
2023-03-26T12:13:14.773Z,9.30
2023-03-26T12:15:43.803Z,9.30
2023-03-26T12:18:24.177Z,9.30
2023-03-26T12:21:10.104Z,9.30
2023-03-26T12:23:53.918Z,9.40
2023-03-26T12:26:36.473Z,9.40
2023-03-26T12:29:15.559Z,9.50
2023-03-26T12:31:49.344Z,9.50
2023-03-26T12:34:19.034Z,9.60
2023-03-26T12:36:55.529Z,9.60
2023-03-26T12:40:08.989Z,9.70
2023-03-26T12:44:48.982Z,9.70
2023-03-26T12:45:27.954Z,9.80
2023-03-26T12:48:03.536Z,9.80
2023-03-26T12:51:09.791Z,9.80
2023-03-26T12:53:45.432Z,9.80
2023-03-26T12:56:36.067Z,9.90
2023-03-26T12:59:23.619Z,9.90
2023-03-26T13:02:06.164Z,9.90
2023-03-26T13:04:35.584Z,9.90
2023-03-26T13:07:24.585Z,9.90
2023-03-26T13:10:22.700Z,9.90
2023-03-26T13:13:28.353Z,10.00
2023-03-26T13:16:05.687Z,10.10
2023-03-26T13:18:55.546Z,10.10
2023-03-26T13:21:38.568Z,10.20
2023-03-26T13:24:23.209Z,10.20
2023-03-26T13:27:19.662Z,10.30
2023-03-26T13:30:04.839Z,10.20
2023-03-26T13:33:06.779Z,10.20
2023-03-26T13:35:39.558Z,10.30
2023-03-26T13:38:16.963Z,10.30
2023-03-26T13:40:49.407Z,10.30
2023-03-26T13:43:40.983Z,10.30
2023-03-26T13:46:14.624Z,10.30
2023-03-26T13:48:50.571Z,10.40
2023-03-26T13:51:40.307Z,10.40
2023-03-26T13:54:23.088Z,10.50
2023-03-26T13:56:56.645Z,10.60
2023-03-26T13:59:37.416Z,10.70
2023-03-26T14:02:11.523Z,10.80
2023-03-26T14:04:48.116Z,10.90
2023-03-26T14:07:50.352Z,10.90
2023-03-26T14:10:21.254Z,11.00
2023-03-26T14:12:59.533Z,11.00
2023-03-26T14:15:28.427Z,10.90
2023-03-26T14:18:22.476Z,10.90
2023-03-26T14:21:03.539Z,10.80
2023-03-26T14:23:48.793Z,10.70
2023-03-26T14:26:46.849Z,10.60
2023-03-26T14:29:31.693Z,10.60
2023-03-26T14:32:36.119Z,10.50
2023-03-26T14:35:25.865Z,10.40
2023-03-26T14:38:00.421Z,10.40
2023-03-26T14:40:57.039Z,10.40
2023-03-26T14:43:48.171Z,10.40
2023-03-26T14:46:46.064Z,10.40
2023-03-26T14:49:51.820Z,10.30
2023-03-26T14:52:31.494Z,10.30
2023-03-26T14:55:02.850Z,10.20
2023-03-26T14:58:03.751Z,10.20
2023-03-26T15:01:04.024Z,10.20
2023-03-26T15:04:12.241Z,10.10
2023-03-26T15:07:15.316Z,10.10
2023-03-26T15:10:00.909Z,10.00
2023-03-26T15:13:00.393Z,10.00
2023-03-26T15:15:55.127Z,10.00
2023-03-26T15:18:45.879Z,10.00
2023-03-26T15:21:31.121Z,10.00
2023-03-26T15:24:30.213Z,10.10
2023-03-26T15:27:42.743Z,10.10
2023-03-26T15:30:28.268Z,10.20
2023-03-26T15:33:19.201Z,10.20
2023-03-26T15:36:44.628Z,10.20
2023-03-26T15:39:44.323Z,10.20
2023-03-26T15:42:41.100Z,10.20
2023-03-26T15:45:31.369Z,10.10
2023-03-26T15:48:08.741Z,10.00
2023-03-26T15:51:15.488Z,10.00
2023-03-26T15:53:53.572Z,9.90
2023-03-26T15:56:41.972Z,9.90
2023-03-26T15:59:34.633Z,9.90
2023-03-26T16:02:16.476Z,9.80
2023-03-26T16:04:52.239Z,9.80
2023-03-26T16:07:41.664Z,9.80
2023-03-26T16:10:33.989Z,9.80
2023-03-26T16:13:19.615Z,9.80
2023-03-26T16:16:10.176Z,9.70
2023-03-26T16:18:50.283Z,9.70
2023-03-26T16:21:34.244Z,9.70
2023-03-26T16:24:07.278Z,9.60
2023-03-26T16:27:15.692Z,9.60
2023-03-26T16:30:12.572Z,9.60
2023-03-26T16:32:56.143Z,9.50
2023-03-26T16:35:38.461Z,9.50
2023-03-26T16:38:16.000Z,9.40
2023-03-26T16:41:06.092Z,9.40
2023-03-26T16:43:42.890Z,9.30
2023-03-26T16:46:28.141Z,9.20
2023-03-26T16:49:23.804Z,9.20
2023-03-26T16:52:03.221Z,9.10
2023-03-26T16:54:55.435Z,9.10
2023-03-26T16:57:56.491Z,9.10
2023-03-26T17:00:29.598Z,9.00
2023-03-26T17:03:25.596Z,9.00
2023-03-26T17:05:58.102Z,9.00
2023-03-26T17:08:42.037Z,8.90
2023-03-26T17:11:29.773Z,8.90
2023-03-26T17:14:33.667Z,8.90
2023-03-26T17:17:03.279Z,8.80
2023-03-26T17:19:45.814Z,8.80
2023-03-26T17:22:27.722Z,8.70
2023-03-26T17:25:20.792Z,8.60
2023-03-26T17:28:14.864Z,8.50
2023-03-26T17:31:04.589Z,8.50
2023-03-26T17:33:38.505Z,8.40
2023-03-26T17:36:11.438Z,8.40
2023-03-26T17:38:45.356Z,8.30
2023-03-26T17:41:14.771Z,8.30
2023-03-26T17:43:46.042Z,8.30
2023-03-26T17:46:24.836Z,8.20
2023-03-26T17:49:04.478Z,8.20
2023-03-26T17:51:40.449Z,8.20
2023-03-26T17:54:14.828Z,8.10
2023-03-26T17:56:42.279Z,8.10
2023-03-26T17:59:23.058Z,8.00
2023-03-26T18:01:55.302Z,8.00
2023-03-26T18:04:31.150Z,7.90
2023-03-26T18:07:28.415Z,7.90
2023-03-26T18:10:09.329Z,7.80
2023-03-26T18:12:57.945Z,7.70
2023-03-26T18:15:34.044Z,7.60
2023-03-26T18:18:20.487Z,7.50
2023-03-26T18:20:50.114Z,7.50
2023-03-26T18:23:47.723Z,7.50
2023-03-26T18:26:16.752Z,7.40
2023-03-26T18:28:49.067Z,7.40
2023-03-26T18:31:25.191Z,7.40
2023-03-26T18:33:58.968Z,7.40
2023-03-26T18:36:27.864Z,7.40
2023-03-26T18:39:00.521Z,7.40
2023-03-26T18:41:32.577Z,7.40
2023-03-26T18:44:04.668Z,7.40
2023-03-26T18:46:33.113Z,7.40
2023-03-26T18:49:03.230Z,7.30
2023-03-26T18:51:31.941Z,7.40
2023-03-26T18:54:00.678Z,7.40
2023-03-26T18:56:37.254Z,7.40
2023-03-26T18:59:31.748Z,7.30
2023-03-26T19:02:13.555Z,7.30
2023-03-26T19:04:46.140Z,7.30
2023-03-26T19:07:23.740Z,7.30
2023-03-26T19:09:52.579Z,7.30
2023-03-26T19:12:32.873Z,7.20
2023-03-26T19:15:17.272Z,7.20
2023-03-26T19:17:56.557Z,7.10
2023-03-26T19:20:28.861Z,7.00
2023-03-26T19:22:57.000Z,7.00
2023-03-26T19:25:28.277Z,6.90
2023-03-26T19:27:55.545Z,6.90
2023-03-26T19:30:32.775Z,6.90
2023-03-26T19:33:20.348Z,6.90
2023-03-26T19:35:53.420Z,6.90
2023-03-26T19:38:24.797Z,6.80
2023-03-26T19:40:53.294Z,6.80
2023-03-26T19:43:20.253Z,6.70
2023-03-26T19:45:59.225Z,6.70
2023-03-26T19:48:45.371Z,6.60
2023-03-26T19:51:44.232Z,6.60
2023-03-26T19:54:16.474Z,6.50
2023-03-26T19:56:43.429Z,6.50
2023-03-26T19:59:10.093Z,6.40
2023-03-26T20:01:36.894Z,6.40
2023-03-26T20:04:06.533Z,6.30
2023-03-26T20:06:43.936Z,6.30
2023-03-26T20:09:12.537Z,6.30
2023-03-26T20:11:40.506Z,6.20
2023-03-26T20:14:14.634Z,6.20
2023-03-26T20:16:43.870Z,6.20
2023-03-26T20:19:12.952Z,6.20
2023-03-26T20:21:40.785Z,6.20
2023-03-26T20:24:13.233Z,6.20
2023-03-26T20:26:39.848Z,6.20
2023-03-26T20:29:06.491Z,6.20
2023-03-26T20:31:33.384Z,6.20
2023-03-26T20:34:00.097Z,6.10
2023-03-26T20:36:32.661Z,6.20
2023-03-26T20:39:08.199Z,6.10
2023-03-26T20:41:39.918Z,6.10
2023-03-26T20:44:13.609Z,6.10
2023-03-26T20:46:40.600Z,6.10
2023-03-26T20:49:07.284Z,6.10
2023-03-26T20:51:33.928Z,6.00
2023-03-26T20:54:00.751Z,6.10
2023-03-26T20:56:28.112Z,6.00
2023-03-26T20:59:09.960Z,6.00
2023-03-26T21:01:38.044Z,6.00
2023-03-26T21:04:05.362Z,6.00
2023-03-26T21:06:32.063Z,5.90
2023-03-26T21:08:59.073Z,6.00
2023-03-26T21:11:50.643Z,5.90
2023-03-26T21:14:22.817Z,5.90
2023-03-26T21:16:49.973Z,5.80
2023-03-26T21:19:17.327Z,5.90
2023-03-26T21:21:57.485Z,5.80
2023-03-26T21:24:56.962Z,5.80
2023-03-26T21:28:05.913Z,5.70
2023-03-26T21:30:34.251Z,5.70
2023-03-26T21:33:01.524Z,5.60
2023-03-26T21:35:28.573Z,5.60
2023-03-26T21:37:57.633Z,5.60
2023-03-26T21:40:24.486Z,5.60
2023-03-26T21:42:53.395Z,5.50
2023-03-26T21:45:21.118Z,5.50
2023-03-26T21:47:48.580Z,5.50
2023-03-26T21:50:21.700Z,5.40
2023-03-26T21:52:50.028Z,5.40
2023-03-26T21:55:22.219Z,5.30
2023-03-26T21:58:12.463Z,5.30
2023-03-26T22:00:44.651Z,5.30
2023-03-26T22:03:27.893Z,5.30
2023-03-26T22:06:12.877Z,5.30
2023-03-26T22:08:41.380Z,5.30
2023-03-26T22:11:10.084Z,5.30
2023-03-26T22:13:38.681Z,5.30
2023-03-26T22:16:07.171Z,5.30
2023-03-26T22:18:34.136Z,5.30
2023-03-26T22:21:01.038Z,5.30
2023-03-26T22:23:33.992Z,5.40
2023-03-26T22:26:00.693Z,5.40
2023-03-26T22:28:27.664Z,5.40
2023-03-26T22:30:54.489Z,5.40
2023-03-26T22:33:21.438Z,5.40
2023-03-26T22:35:48.295Z,5.40
2023-03-26T22:38:16.955Z,5.40
2023-03-26T22:40:43.657Z,5.40
2023-03-26T22:43:10.300Z,5.40
2023-03-26T22:45:37.643Z,5.50
2023-03-26T22:48:04.786Z,5.40
2023-03-26T22:50:32.633Z,5.40
2023-03-26T22:52:59.432Z,5.40
2023-03-26T22:55:28.149Z,5.40
2023-03-26T22:57:55.796Z,5.40
2023-03-26T23:00:22.541Z,5.30
2023-03-26T23:02:49.956Z,5.30
2023-03-26T23:05:20.320Z,5.30
2023-03-26T23:07:47.233Z,5.20
2023-03-26T23:10:14.263Z,5.20
2023-03-26T23:12:41.463Z,5.10
2023-03-26T23:15:09.535Z,5.10
2023-03-26T23:17:37.463Z,5.20
2023-03-26T23:20:14.594Z,5.20
2023-03-26T23:22:42.993Z,5.20
2023-03-26T23:25:11.256Z,5.20
2023-03-26T23:27:39.876Z,5.30
2023-03-26T23:30:07.222Z,5.30
2023-03-26T23:32:37.757Z,5.30
2023-03-26T23:35:05.286Z,5.30
2023-03-26T23:37:35.134Z,5.30
2023-03-26T23:40:07.319Z,5.30
2023-03-26T23:42:34.398Z,5.40
2023-03-26T23:45:01.065Z,5.40
2023-03-26T23:47:34.105Z,5.40
2023-03-26T23:50:04.628Z,5.40
2023-03-26T23:52:31.645Z,5.40
2023-03-26T23:55:02.034Z,5.40
2023-03-26T23:57:29.048Z,5.30
2023-03-26T23:59:56.199Z,5.30
